Main page
METAR-TAF:

METAR-TAF

Airports :

Noi Bai International Airport

Hanoi, Vietnam

latitude: 21-01N, longitude: 105-48E, elevation: 6 m

Current weather observation

The report was made 30 minutes ago, at 23:00 UTC
Wind 5 kt from the North
Temperature 14°C
Humidity 63%
Pressure 1025 hPa
Visibility 10 km or more
Overcast at a height of 4900 ft

METAR: VVNB 212300Z 01005KT 9999 OVC049 14/07 Q1025 NOSIG

Time: 06:30 (23:30 UTC)

Forecast

The report was made 6 hours and 30 minutes ago, at 17:00 UTC
Forecast valid from 21 at 18 UTC to 22 at 18 UTC
Wind 6 kt from the North
Visibility: 8000 m
Scattered clouds at a height of 3500 ft
Broken clouds at a height of 6000 ft

TAF: VVNB 211700Z 2118/2218 01006KT 8000 SCT035 BKN060

Weather observations and forecasts of more than 4000 airports (METAR and TAF reports).

The available stations are represented by yellow and red dots on the map.

Hover mouse over dot to see the name of the station.

Then click to see weather observations and forecasts.

To change the map : click on the green buttons with a black cross to zoom in, on the green button with a dash to zoom out, or on the green arrows for adjacent maps.


METAR-TAF: